Time;durP1;ratioP1;P1;durP2;ratioP2;P2;SDS_P1;SDS_P2;PMS_P1;PMS_P2;Temp;Humidity;BMP_temperature;BMP_pressure;BME280_temperature;BME280_humidity;BME280_pressure;Samples;Min_cycle;Max_cycle;Signal;HPM_P1;HPM_P2
2021/07/17 00:00:44;;;;;;;1999.90;999.90;;;21.90;71.30;;;;;;5027999;28;20030;-79
2021/07/17 00:03:10;;;;;;;1999.90;999.90;;;21.90;71.60;;;;;;5027909;28;20037;-79
2021/07/17 00:05:36;;;;;;;1999.90;999.90;;;21.90;71.60;;;;;;5028022;28;20033;-78
2021/07/17 00:08:03;;;;;;;1999.90;999.90;;;21.90;71.80;;;;;;5027623;28;20018;-79
2021/07/17 00:10:40;;;;;;;1999.90;999.90;;;21.90;72.00;;;;;;5027584;28;20168;-79
2021/07/17 00:13:07;;;;;;;1999.90;999.90;;;21.80;72.20;;;;;;5029037;28;20059;-78
2021/07/17 00:15:33;;;;;;;1999.90;999.90;;;21.80;72.20;;;;;;5027685;28;20431;-79
2021/07/17 00:17:59;;;;;;;1999.90;999.90;;;21.80;72.40;;;;;;5028749;28;20030;-78
2021/07/17 00:20:24;;;;;;;1999.90;999.90;;;21.80;72.50;;;;;;5027656;28;20097;-78
2021/07/17 00:22:50;;;;;;;1999.90;999.90;;;21.70;72.60;;;;;;5028812;28;20036;-76
2021/07/17 00:25:19;;;;;;;1999.90;999.90;;;21.70;72.80;;;;;;5027453;28;20037;-78
2021/07/17 00:27:45;;;;;;;1999.90;999.90;;;21.60;73.00;;;;;;5028544;28;20037;-79
2021/07/17 00:30:12;;;;;;;1999.90;999.90;;;21.60;73.20;;;;;;5026981;28;20060;-78
2021/07/17 00:32:38;;;;;;;1999.90;999.90;;;21.60;73.50;;;;;;5028530;28;20030;-78
2021/07/17 00:35:06;;;;;;;1999.90;999.90;;;21.50;73.50;;;;;;5028421;28;20079;-79
2021/07/17 00:37:32;;;;;;;1999.90;999.90;;;21.50;73.60;;;;;;5028544;28;20041;-78
2021/07/17 00:39:58;;;;;;;1999.90;999.90;;;21.50;73.80;;;;;;5028451;28;20036;-79
2021/07/17 00:42:24;;;;;;;1999.90;999.90;;;21.50;73.90;;;;;;5027079;28;20447;-78
2021/07/17 00:44:49;;;;;;;1999.90;999.90;;;21.50;74.10;;;;;;5026898;28;20029;-78
2021/07/17 00:47:16;;;;;;;1999.90;999.90;;;21.50;74.30;;;;;;5027016;28;20473;-79
2021/07/17 00:49:42;;;;;;;1999.90;999.90;;;21.40;74.40;;;;;;5026900;28;20034;-78
2021/07/17 00:52:09;;;;;;;1999.90;999.90;;;21.40;74.60;;;;;;5028415;28;20124;-77
2021/07/17 00:54:35;;;;;;;1999.90;999.90;;;21.40;74.70;;;;;;5028492;28;20405;-79
2021/07/17 00:57:05;;;;;;;1999.90;999.90;;;21.40;74.80;;;;;;5026784;28;20495;-78
2021/07/17 00:59:33;;;;;;;1999.90;999.90;;;21.40;75.20;;;;;;5028228;28;20399;-78
2021/07/17 01:02:01;;;;;;;1999.90;999.90;;;21.30;75.20;;;;;;5028138;28;20033;-78
2021/07/17 01:04:28;;;;;;;1999.90;999.90;;;21.30;75.30;;;;;;5027017;28;20025;-77
2021/07/17 01:06:57;;;;;;;1999.90;999.90;;;21.20;75.40;;;;;;5028094;28;20104;-79
2021/07/17 01:09:23;;;;;;;1999.90;999.90;;;21.30;75.70;;;;;;5028008;28;20052;-77
2021/07/17 01:11:48;;;;;;;1999.90;999.90;;;21.30;75.70;;;;;;5026620;28;20025;-78
2021/07/17 01:14:14;;;;;;;1999.90;999.90;;;21.20;75.80;;;;;;5027833;28;20075;-79
2021/07/17 01:16:41;;;;;;;1999.90;999.90;;;21.20;76.00;;;;;;5026626;28;20030;-78
2021/07/17 01:19:11;;;;;;;1999.90;999.90;;;21.20;76.10;;;;;;5026570;28;20487;-79
2021/07/17 01:21:37;;;;;;;1999.90;999.90;;;21.20;76.40;;;;;;5027959;28;20022;-79
2021/07/17 01:24:03;;;;;;;1999.90;999.90;;;21.10;76.40;;;;;;5009969;28;20029;-78
2021/07/17 01:26:29;;;;;;;1999.90;999.90;;;21.10;76.60;;;;;;5026424;28;20535;-78
2021/07/17 01:28:55;;;;;;;1999.90;999.90;;;21.00;77.10;;;;;;5027567;28;20049;-77
2021/07/17 01:31:21;;;;;;;1999.90;999.90;;;21.00;76.80;;;;;;5027651;28;20388;-78
2021/07/17 01:33:46;;;;;;;1999.90;999.90;;;21.00;76.90;;;;;;5010176;28;20037;-80
2021/07/17 01:36:13;;;;;;;1999.90;999.90;;;20.90;77.10;;;;;;5026404;28;20449;-77
2021/07/17 01:38:39;;;;;;;1999.90;999.90;;;20.90;77.30;;;;;;5009832;28;20025;-79
2021/07/17 01:41:04;;;;;;;1999.90;999.90;;;20.80;77.50;;;;;;5026296;28;20405;-78
2021/07/17 01:43:30;;;;;;;1999.90;999.90;;;20.80;77.70;;;;;;5027566;28;20037;-78
2021/07/17 01:46:00;;;;;;;1999.90;999.90;;;20.80;77.90;;;;;;5025711;28;20041;-76
2021/07/17 01:48:26;;;;;;;1999.90;999.90;;;20.70;78.10;;;;;;5026068;28;20029;-79
2021/07/17 01:50:52;;;;;;;1999.90;999.90;;;20.70;78.00;;;;;;5027352;28;20028;-77
2021/07/17 01:53:19;;;;;;;1999.90;999.90;;;20.70;78.20;;;;;;5027548;28;20033;-78
2021/07/17 01:55:45;;;;;;;1999.90;999.90;;;20.70;78.40;;;;;;5027477;28;20384;-77
2021/07/17 01:58:11;;;;;;;1999.90;999.90;;;20.60;78.40;;;;;;5026036;28;20579;-80
2021/07/17 02:00:38;;;;;;;1999.90;999.90;;;20.60;78.70;;;;;;5027473;28;20029;-78
2021/07/17 02:03:07;;;;;;;1999.90;999.90;;;20.60;78.90;;;;;;5009816;28;20080;-79
2021/07/17 02:05:33;;;;;;;1999.90;999.90;;;20.60;79.20;;;;;;5027538;28;20033;-78
2021/07/17 02:08:00;;;;;;;1999.90;999.90;;;20.50;79.20;;;;;;5027370;28;20105;-76
2021/07/17 02:10:28;;;;;;;1999.90;999.90;;;20.50;79.40;;;;;;5027156;28;20022;-77
2021/07/17 02:13:03;;;;;;;1999.90;999.90;;;20.50;79.60;;;;;;5027453;28;20020;-77
2021/07/17 02:15:32;;;;;;;1999.90;999.90;;;20.50;79.80;;;;;;5027200;28;20034;-77
2021/07/17 02:17:59;;;;;;;1999.90;999.90;;;20.50;79.70;;;;;;5027173;28;20102;-78
2021/07/17 02:20:25;;;;;;;1999.90;999.90;;;20.50;79.70;;;;;;5027159;28;20044;-77
2021/07/17 02:22:51;;;;;;;1999.90;999.90;;;20.40;79.80;;;;;;5009584;28;20449;-79
2021/07/17 02:25:17;;;;;;;1999.90;999.90;;;20.50;80.00;;;;;;5027130;28;20037;-78
2021/07/17 02:27:43;;;;;;;1999.90;999.90;;;20.40;80.00;;;;;;5025854;28;20033;-79
2021/07/17 02:30:10;;;;;;;1999.90;999.90;;;20.40;80.00;;;;;;5026928;28;20049;-77
2021/07/17 02:32:36;;;;;;;1999.90;999.90;;;20.40;80.10;;;;;;5027031;28;20044;-78
2021/07/17 02:35:04;;;;;;;1999.90;999.90;;;20.40;80.20;;;;;;5025860;28;20022;-78
2021/07/17 02:37:30;;;;;;;1999.90;999.90;;;20.40;80.30;;;;;;5025666;28;20373;-78
2021/07/17 02:39:55;;;;;;;1999.90;999.90;;;20.30;80.50;;;;;;5027035;28;20044;-79
2021/07/17 02:42:21;;;;;;;1999.90;999.90;;;20.30;80.50;;;;;;5027131;28;20549;-78
2021/07/17 02:44:47;;;;;;;1999.90;999.90;;;20.30;80.60;;;;;;5009383;28;20046;-78
2021/07/17 02:47:13;;;;;;;1999.90;999.90;;;20.20;80.80;;;;;;5009240;28;20030;-78
2021/07/17 02:49:39;;;;;;;1999.90;999.90;;;20.20;81.00;;;;;;5025635;28;20068;-77
2021/07/17 02:52:04;;;;;;;1999.90;999.90;;;20.20;81.20;;;;;;5026960;28;20438;-78
2021/07/17 02:54:30;;;;;;;1999.90;999.90;;;20.20;81.40;;;;;;5025803;28;20029;-78
2021/07/17 02:56:56;;;;;;;1999.90;999.90;;;20.20;81.50;;;;;;5025608;28;20365;-78
2021/07/17 02:59:21;;;;;;;1999.90;999.90;;;20.20;81.60;;;;;;5028838;28;20037;-78
2021/07/17 03:01:47;;;;;;;1999.90;999.90;;;20.10;81.70;;;;;;5029342;28;20483;-76
2021/07/17 03:04:13;;;;;;;1999.90;999.90;;;20.10;81.70;;;;;;5029099;28;20208;-76
2021/07/17 03:06:38;;;;;;;1999.90;999.90;;;20.10;81.80;;;;;;5028918;28;20476;-77
2021/07/17 03:09:05;;;;;;;1999.90;999.90;;;20.10;81.80;;;;;;5029160;28;20037;-77
2021/07/17 03:11:34;;;;;;;1999.90;999.90;;;20.10;81.90;;;;;;5028874;28;20079;-77
2021/07/17 03:14:01;;;;;;;1999.90;999.90;;;20.10;82.10;;;;;;5030327;28;20021;-79
2021/07/17 03:16:29;;;;;;;1999.90;999.90;;;20.10;82.00;;;;;;5028692;28;20247;-76
2021/07/17 03:18:55;;;;;;;1999.90;999.90;;;20.00;82.00;;;;;;5028764;28;20029;-78
2021/07/17 03:21:20;;;;;;;1999.90;999.90;;;20.00;82.20;;;;;;5028544;28;20581;-77
2021/07/17 03:23:46;;;;;;;1999.90;999.90;;;20.00;82.20;;;;;;5012068;28;20059;-78
2021/07/17 03:26:12;;;;;;;1999.90;999.90;;;20.00;82.40;;;;;;5012330;28;20040;-76
2021/07/17 03:28:38;;;;;;;1999.90;999.90;;;19.90;82.50;;;;;;5028297;28;20054;-78
2021/07/17 03:31:04;;;;;;;1999.90;999.90;;;19.90;82.70;;;;;;5028498;28;20073;-77
2021/07/17 03:33:29;;;;;;;1999.90;999.90;;;19.90;82.80;;;;;;5029864;28;20025;-77
2021/07/17 03:35:59;;;;;;;1999.90;999.90;;;19.90;82.90;;;;;;5029666;28;20391;-78
2021/07/17 03:38:25;;;;;;;;;;;19.90;83.00;;;;;;5028841;28;20456;-77
2021/07/17 03:40:51;;;;;;;1999.90;999.90;;;19.90;82.60;;;;;;5029699;28;20004;-78
2021/07/17 03:43:16;;;;;;;1999.90;999.90;;;19.90;82.60;;;;;;5028350;28;20037;-76
2021/07/17 03:45:42;;;;;;;1999.90;999.90;;;19.90;82.90;;;;;;5028215;28;20030;-77
2021/07/17 03:48:08;;;;;;;1999.90;999.90;;;19.80;83.00;;;;;;5029429;28;20025;-76
2021/07/17 03:50:34;;;;;;;1999.90;999.90;;;19.80;83.20;;;;;;5029461;28;20159;-77
2021/07/17 03:53:00;;;;;;;1999.90;999.90;;;19.70;83.20;;;;;;5029480;28;20074;-77
2021/07/17 03:55:26;;;;;;;1999.90;999.90;;;19.70;83.40;;;;;;5029390;28;20484;-78
2021/07/17 03:57:51;;;;;;;1999.90;999.90;;;19.70;83.50;;;;;;5028014;28;20034;-76
2021/07/17 04:00:17;;;;;;;1999.90;999.90;;;19.70;83.60;;;;;;5011431;28;20116;-76
2021/07/17 04:02:44;;;;;;;1999.90;999.90;;;19.70;83.80;;;;;;5011412;28;20381;-77
2021/07/17 04:05:12;;;;;;;1999.90;999.90;;;19.70;83.90;;;;;;5029213;28;20096;-77
2021/07/17 04:07:38;;;;;;;1999.90;999.90;;;19.70;84.00;;;;;;5027812;28;20037;-78
2021/07/17 04:10:05;;;;;;;1999.90;999.90;;;19.60;83.90;;;;;;5028565;28;20065;-76
2021/07/17 04:12:32;;;;;;;1999.90;999.90;;;19.60;84.10;;;;;;5027812;28;20077;-77
2021/07/17 04:14:58;;;;;;;1999.90;999.90;;;19.60;84.10;;;;;;5029023;28;20041;-78
2021/07/17 04:17:23;;;;;;;1999.90;999.90;;;19.60;84.20;;;;;;5028929;28;20435;-77
2021/07/17 04:19:49;;;;;;;1999.90;999.90;;;19.60;84.20;;;;;;5027592;28;20043;-78
2021/07/17 04:22:15;;;;;;;1999.90;999.90;;;19.60;84.30;;;;;;5011037;28;20043;-75
2021/07/17 04:24:41;;;;;;;1999.90;999.90;;;19.60;84.40;;;;;;5027537;28;20035;-76
2021/07/17 04:27:07;;;;;;;1999.90;999.90;;;19.60;84.50;;;;;;5027546;28;20029;-77
2021/07/17 04:29:33;;;;;;;1999.90;999.90;;;19.60;84.60;;;;;;5027260;28;20077;-78
2021/07/17 04:31:59;;;;;;;1999.90;999.90;;;19.60;84.60;;;;;;5028704;28;20436;-77
2021/07/17 04:34:24;;;;;;;1999.90;999.90;;;19.60;84.50;;;;;;5027161;28;20380;-76
2021/07/17 04:36:50;;;;;;;1999.90;999.90;;;19.60;84.40;;;;;;5027650;28;20032;-77
2021/07/17 04:39:17;;;;;;;1999.90;999.90;;;19.50;84.40;;;;;;5027051;28;20030;-76
2021/07/17 04:41:42;;;;;;;1999.90;999.90;;;19.50;84.50;;;;;;5028589;28;20091;-78
2021/07/17 04:44:08;;;;;;;1999.90;999.90;;;19.50;84.60;;;;;;5027200;28;20029;-76
2021/07/17 04:46:34;;;;;;;1999.90;999.90;;;19.50;84.80;;;;;;5010822;28;20124;-77
2021/07/17 04:48:59;;;;;;;1999.90;999.90;;;19.50;84.90;;;;;;5027010;28;20480;-77
2021/07/17 04:51:25;;;;;;;1999.90;999.90;;;19.50;84.90;;;;;;5028322;28;20037;-77
2021/07/17 04:53:51;;;;;;;1999.90;999.90;;;19.60;84.90;;;;;;5026942;28;20037;-78
2021/07/17 04:56:16;;;;;;;1999.90;999.90;;;19.60;85.00;;;;;;5027046;28;20022;-77
2021/07/17 04:58:42;;;;;;;1999.90;999.90;;;19.60;85.00;;;;;;5028200;28;20036;-78
2021/07/17 05:01:08;;;;;;;1999.90;999.90;;;19.60;85.00;;;;;;5028216;28;20079;-77
2021/07/17 05:03:35;;;;;;;1999.90;999.90;;;19.60;84.90;;;;;;5010497;28;20033;-74
2021/07/17 05:06:02;;;;;;;1999.90;999.90;;;19.70;85.00;;;;;;5026832;28;20539;-77
2021/07/17 05:08:28;;;;;;;1999.90;999.90;;;19.70;85.10;;;;;;5027884;28;20029;-77
2021/07/17 05:10:53;;;;;;;1999.90;999.90;;;19.70;85.10;;;;;;5027923;28;20088;-76
2021/07/17 05:13:19;;;;;;;1999.90;999.90;;;19.70;85.20;;;;;;5026580;28;20479;-76
2021/07/17 05:15:45;;;;;;;1999.90;999.90;;;19.80;85.40;;;;;;5027923;28;20476;-78
2021/07/17 05:18:11;;;;;;;1999.90;999.90;;;19.80;85.50;;;;;;5027747;28;20068;-75
2021/07/17 05:20:38;;;;;;;1999.90;999.90;;;19.80;85.50;;;;;;5025829;28;20053;-77
2021/07/17 05:23:04;;;;;;;1999.90;999.90;;;19.90;85.70;;;;;;5026707;28;20539;-76
2021/07/17 05:25:30;;;;;;;1999.90;999.90;;;19.90;85.70;;;;;;5027738;28;20109;-77
2021/07/17 05:27:56;;;;;;;1999.90;999.90;;;20.00;85.90;;;;;;5027517;28;20034;-78
2021/07/17 05:30:22;;;;;;;1999.90;999.90;;;20.00;86.10;;;;;;5027647;28;20045;-78
2021/07/17 05:32:48;;;;;;;1999.90;999.90;;;20.00;86.20;;;;;;5026306;28;20388;-77
2021/07/17 05:35:13;;;;;;;1999.90;999.90;;;20.10;86.20;;;;;;5026345;28;20037;-78
2021/07/17 05:37:39;;;;;;;1999.90;999.90;;;20.20;86.20;;;;;;5027614;28;20249;-76
2021/07/17 05:40:06;;;;;;;1999.90;999.90;;;20.30;86.20;;;;;;5027666;28;20030;-76
2021/07/17 05:42:32;;;;;;;1999.90;999.90;;;20.40;86.10;;;;;;5026272;28;20061;-77
2021/07/17 05:44:58;;;;;;;1999.90;999.90;;;20.40;86.00;;;;;;5027772;28;20131;-77
2021/07/17 05:47:24;;;;;;;1999.90;999.90;;;20.50;85.90;;;;;;5009632;28;20455;-78
2021/07/17 05:49:50;;;;;;;1999.90;999.90;;;20.60;85.90;;;;;;5026239;28;20484;-78
2021/07/17 05:52:15;;;;;;;1999.90;999.90;;;20.60;85.80;;;;;;5009731;28;20428;-78
2021/07/17 05:54:41;;;;;;;1999.90;999.90;;;20.70;85.80;;;;;;5027439;28;20121;-77
2021/07/17 05:57:08;;;;;;;1999.90;999.90;;;20.70;85.80;;;;;;5027220;28;20025;-76
2021/07/17 05:59:36;;;;;;;1999.90;999.90;;;20.80;85.80;;;;;;5026068;28;20021;-78
2021/07/17 06:02:02;;;;;;;1999.90;999.90;;;20.90;85.70;;;;;;5027150;28;20091;-77
2021/07/17 06:04:28;;;;;;;1999.90;999.90;;;21.20;86.40;;;;;;5027173;28;20050;-77
2021/07/17 06:06:54;;;;;;;1999.90;999.90;;;22.00;85.30;;;;;;5026911;28;20064;-78
2021/07/17 06:09:19;;;;;;;1999.90;999.90;;;22.90;83.40;;;;;;5025440;28;20124;-78
2021/07/17 06:11:45;;;;;;;1999.90;999.90;;;24.00;81.50;;;;;;5025791;28;20452;-77
2021/07/17 06:14:11;;;;;;;1999.90;999.90;;;24.80;79.30;;;;;;5025855;28;20034;-77
2021/07/17 06:16:37;;;;;;;1999.90;999.90;;;25.70;78.30;;;;;;5027045;28;20113;-77
2021/07/17 06:19:03;;;;;;;83.55;79.20;;;26.90;76.50;;;;;;5025711;28;20064;-78
2021/07/17 06:21:29;;;;;;;76.57;72.50;;;28.00;74.10;;;;;;5009445;28;20455;-77
2021/07/17 06:23:54;;;;;;;75.18;71.22;;;29.00;72.10;;;;;;5025730;28;20093;-76
2021/07/17 06:26:21;;;;;;;193.05;183.38;;;30.00;70.00;;;;;;5027031;28;20076;-78
2021/07/17 06:28:46;;;;;;;91.20;86.30;;;30.70;68.00;;;;;;5026630;28;20056;-77
2021/07/17 06:31:12;;;;;;;64.18;60.50;;;31.30;66.00;;;;;;5026958;28;20037;-75
2021/07/17 06:33:38;;;;;;;96.50;91.53;;;31.40;64.40;;;;;;5030735;28;20387;-78
2021/07/17 06:36:04;;;;;;;195.13;185.35;;;31.70;63.70;;;;;;5012951;28;20037;-79
2021/07/17 06:38:29;;;;;;;183.52;174.38;;;32.20;62.90;;;;;;5029271;28;20034;-77
2021/07/17 06:40:55;;;;;;;136.80;129.88;;;32.70;61.90;;;;;;5030333;28;20108;-77
2021/07/17 06:43:20;;;;;;;70.80;66.75;;;33.10;61.00;;;;;;5030507;28;20048;-79
2021/07/17 06:45:46;;;;;;;49.50;46.67;;;33.60;59.80;;;;;;5030498;28;20428;-77
2021/07/17 06:48:12;;;;;;;68.97;65.38;;;34.00;58.90;;;;;;5030416;28;20052;-77
2021/07/17 06:50:38;;;;;;;53.83;51.13;;;34.50;57.90;;;;;;5030363;28;20026;-77
2021/07/17 06:53:03;;;;;;;52.33;49.40;;;35.00;57.00;;;;;;5030558;28;20105;-78
2021/07/17 06:55:30;;;;;;;44.03;41.50;;;35.50;56.20;;;;;;5030406;28;20099;-79
2021/07/17 06:57:56;;;;;;;43.00;40.42;;;35.80;55.20;;;;;;5012394;28;20033;-78
2021/07/17 07:00:22;;;;;;;60.70;57.55;;;36.10;54.40;;;;;;5030411;28;20025;-77
2021/07/17 07:02:47;;;;;;;62.35;59.08;;;36.40;53.90;;;;;;5030052;28;20033;-76
2021/07/17 07:05:13;;;;;;;87.95;83.20;;;36.70;53.30;;;;;;5029754;28;20108;-77
2021/07/17 07:07:40;;;;;;;148.98;141.52;;;36.90;52.60;;;;;;5029753;28;20065;-76
2021/07/17 07:10:07;;;;;;;92.07;87.40;;;37.00;52.00;;;;;;5029670;28;20260;-78
2021/07/17 07:12:37;;;;;;;93.85;89.00;;;36.60;50.90;;;;;;5029789;28;20032;-79
2021/07/17 07:15:07;;;;;;;51.10;48.28;;;36.10;51.30;;;;;;5029760;28;20025;-77
2021/07/17 07:17:33;;;;;;;59.47;56.05;;;36.10;51.20;;;;;;5028291;28;20079;-77
2021/07/17 07:19:59;;;;;;;131.75;125.30;;;35.90;51.00;;;;;;5029685;28;20029;-76
2021/07/17 07:22:25;;;;;;;191.68;182.20;;;35.70;51.20;;;;;;5029735;28;20036;-77
2021/07/17 07:24:50;;;;;;;168.90;160.10;;;36.10;51.30;;;;;;5029526;28;20369;-79
2021/07/17 07:27:16;;;;;;;182.80;173.88;;;36.50;50.80;;;;;;5029445;28;20029;-78
2021/07/17 07:29:42;;;;;;;105.47;99.55;;;37.00;50.50;;;;;;5029312;28;20397;-78
2021/07/17 07:32:07;;;;;;;110.22;104.55;;;37.50;49.90;;;;;;5029732;28;20038;-78
2021/07/17 07:34:33;;;;;;;102.32;96.75;;;37.70;49.40;;;;;;5029989;28;20161;-78
2021/07/17 07:36:59;;;;;;;105.40;99.95;;;37.90;49.10;;;;;;5029647;28;20040;-77
2021/07/17 07:39:24;;;;;;;86.82;82.38;;;38.00;48.70;;;;;;5029185;28;20394;-80
2021/07/17 07:41:50;;;;;;;62.63;59.50;;;38.10;48.50;;;;;;5029203;28;20029;-79
2021/07/17 07:44:16;;;;;;;65.35;61.83;;;38.40;48.40;;;;;;5010799;28;20029;-77
2021/07/17 07:46:41;;;;;;;102.13;96.72;;;38.60;48.20;;;;;;5029027;28;20119;-78
2021/07/17 07:49:08;;;;;;;73.90;70.25;;;38.80;48.00;;;;;;5027773;28;20506;-77
2021/07/17 07:51:34;;;;;;;60.53;57.47;;;39.00;47.70;;;;;;5028689;28;20534;-78
2021/07/17 07:54:00;;;;;;;54.42;51.67;;;39.30;48.00;;;;;;5028975;28;20026;-78
2021/07/17 07:56:26;;;;;;;45.28;42.80;;;39.60;47.30;;;;;;5028758;28;20039;-77
2021/07/17 07:58:52;;;;;;;40.55;38.17;;;40.20;47.00;;;;;;5027227;28;20108;-80
2021/07/17 08:01:17;;;;;;;33.22;31.23;;;40.60;46.60;;;;;;5029054;28;20116;-80
2021/07/17 08:03:43;;;;;;;37.33;35.15;;;41.00;46.50;;;;;;5027736;28;20033;-80
2021/07/17 08:06:09;;;;;;;28.75;26.95;;;41.40;46.00;;;;;;5028749;28;20101;-79
2021/07/17 08:08:35;;;;;;;28.77;27.17;;;41.70;45.60;;;;;;5027145;28;20037;-78
2021/07/17 08:11:01;;;;;;;25.60;23.92;;;41.70;45.30;;;;;;5027035;28;20033;-78
2021/07/17 08:13:27;;;;;;;23.98;22.58;;;41.90;45.20;;;;;;5028726;28;20021;-79
2021/07/17 08:15:54;;;;;;;21.15;19.75;;;42.10;44.90;;;;;;5029219;28;20424;-78
2021/07/17 08:18:20;;;;;;;20.95;19.70;;;42.20;44.60;;;;;;5028818;28;20113;-77
2021/07/17 08:20:46;;;;;;;20.15;18.80;;;42.30;44.40;;;;;;5027880;28;20046;-78
2021/07/17 08:23:12;;;;;;;20.67;19.23;;;42.50;44.30;;;;;;5028249;28;20033;-77
2021/07/17 08:25:38;;;;;;;21.00;19.15;;;42.90;44.20;;;;;;5028193;28;20025;-76
2021/07/17 08:28:04;;;;;;;20.92;19.45;;;43.30;44.00;;;;;;5027555;28;20098;-79
2021/07/17 08:30:32;;;;;;;25.35;23.30;;;43.50;43.70;;;;;;5028061;28;20038;-78
2021/07/17 08:32:57;;;;;;;26.30;24.70;;;43.80;43.40;;;;;;5026758;28;20030;-77
2021/07/17 08:35:24;;;;;;;30.15;28.40;;;44.10;43.20;;;;;;5026856;28;20083;-78
2021/07/17 08:37:49;;;;;;;33.22;31.20;;;44.30;42.90;;;;;;5028242;28;20025;-78
2021/07/17 08:40:15;;;;;;;42.88;40.38;;;44.50;42.70;;;;;;5027720;28;20483;-80
2021/07/17 08:42:46;;;;;;;44.38;41.97;;;44.80;43.20;;;;;;5026306;28;20223;-80
2021/07/17 08:45:12;;;;;;;55.55;52.45;;;45.00;42.30;;;;;;5026800;28;20033;-78
2021/07/17 08:47:41;;;;;;;59.55;56.35;;;45.30;42.40;;;;;;5027559;28;20199;-77
2021/07/17 08:50:10;;;;;;;63.95;60.63;;;45.40;42.20;;;;;;5027627;28;20029;-79
2021/07/17 08:52:36;;;;;;;82.65;78.07;;;45.50;41.90;;;;;;5027777;28;20025;-78
2021/07/17 08:55:08;;;;;;;81.47;76.68;;;45.60;41.70;;;;;;5027368;28;20030;-77
2021/07/17 08:57:36;;;;;;;78.88;74.95;;;45.70;41.30;;;;;;5027233;28;20024;-79
2021/07/17 09:00:11;;;;;;;80.50;76.30;;;45.60;41.20;;;;;;5027634;28;20083;-78
2021/07/17 09:02:42;;;;;;;45.22;42.30;;;45.60;41.00;;;;;;5029005;28;20031;-78
2021/07/17 09:05:11;;;;;;;61.13;57.53;;;45.50;41.20;;;;;;5028823;28;20550;-80
2021/07/17 09:07:37;;;;;;;72.32;68.53;;;45.50;41.20;;;;;;5028719;28;20071;-80
2021/07/17 09:10:29;;;;;;;63.30;59.97;;;45.70;41.20;;;;;;5029121;28;20080;-79
2021/07/17 09:13:13;;;;;;;53.80;50.53;;;45.90;41.20;;;;;;5027567;28;20136;-77
2021/07/17 09:15:48;;;;;;;60.53;57.17;;;46.20;41.30;;;;;;5028873;28;20022;-79
2021/07/17 09:18:33;;;;;;;70.75;66.82;;;46.50;40.90;;;;;;5028605;28;20018;-77
2021/07/17 09:21:04;;;;;;;70.43;66.68;;;46.50;40.80;;;;;;5028582;28;20037;-77
2021/07/17 09:23:33;;;;;;;48.55;45.97;;;46.60;40.90;;;;;;5028680;28;20037;-77
2021/07/17 09:26:07;;;;;;;54.60;51.33;;;46.80;40.80;;;;;;5028907;28;20357;-75
2021/07/17 09:28:33;;;;;;;39.85;37.60;;;47.10;40.70;;;;;;5026835;28;20091;-78
2021/07/17 09:31:00;;;;;;;35.28;33.17;;;47.30;40.70;;;;;;5027553;28;20352;-76
2021/07/17 09:33:27;;;;;;;33.40;31.40;;;47.50;40.50;;;;;;5027211;28;20060;-77
2021/07/17 09:35:56;;;;;;;32.60;30.27;;;47.60;40.30;;;;;;5028731;28;20119;-76
2021/07/17 09:38:25;;;;;;;35.22;33.03;;;47.50;40.20;;;;;;5028557;28;20058;-77
2021/07/17 09:40:54;;;;;;;33.88;31.42;;;47.40;40.00;;;;;;5029052;28;20111;-76
2021/07/17 09:43:28;;;;;;;33.42;31.52;;;47.20;39.90;;;;;;5029307;28;20021;-77
2021/07/17 09:45:55;;;;;;;34.80;32.67;;;47.10;39.80;;;;;;5028067;28;20044;-76
2021/07/17 09:48:21;;;;;;;35.60;33.55;;;47.10;39.90;;;;;;5028730;28;20419;-78
2021/07/17 09:50:52;;;;;;;35.08;32.90;;;47.30;40.00;;;;;;5028017;28;20036;-76
2021/07/17 09:53:37;;;;;;;116.28;109.43;;;47.50;39.60;;;;;;5029481;28;20069;-78
2021/07/17 09:56:13;;;;;;;48.00;45.03;;;47.50;39.30;;;;;;5029890;28;20108;-77
2021/07/17 09:58:39;;;;;;;34.58;32.58;;;47.30;38.90;;;;;;5027360;28;20029;-78
2021/07/17 10:01:37;;;;;;;36.58;34.28;;;47.20;39.00;;;;;;5029142;28;20382;-77
2021/07/17 10:04:13;;;;;;;38.70;36.28;;;46.80;39.00;;;;;;5024236;28;20033;-77
2021/07/17 10:06:45;;;;;;;50.58;47.72;;;46.30;39.30;;;;;;5029703;28;20036;-76
2021/07/17 10:09:16;;;;;;;50.13;47.10;;;46.50;39.10;;;;;;5033146;28;20057;-76
2021/07/17 10:11:50;;;;;;;73.75;70.03;;;46.30;39.00;;;;;;5030883;28;20378;-77
2021/07/17 10:14:21;;;;;;;85.43;80.72;;;46.20;39.10;;;;;;5032802;28;20084;-78
2021/07/17 10:16:49;;;;;;;78.53;74.18;;;46.10;39.30;;;;;;5031229;28;20073;-76
2021/07/17 10:19:16;;;;;;;65.28;61.58;;;46.20;39.40;;;;;;5032127;28;20032;-75
2021/07/17 10:21:43;;;;;;;57.60;54.47;;;46.40;39.50;;;;;;5032896;28;20037;-78
2021/07/17 10:24:13;;;;;;;43.85;41.45;;;46.50;39.40;;;;;;5031585;28;20066;-77
2021/07/17 10:26:39;;;;;;;42.50;40.15;;;46.50;39.30;;;;;;5030711;28;20053;-77
2021/07/17 10:29:07;;;;;;;258.70;239.57;;;46.60;39.30;;;;;;5030499;28;20091;-80
2021/07/17 10:31:34;;;;;;;38.75;36.50;;;46.70;39.70;;;;;;5032839;28;20550;-77
2021/07/17 10:33:59;;;;;;;41.45;39.15;;;46.60;39.20;;;;;;5033345;28;20045;-76
2021/07/17 10:36:26;;;;;;;37.15;34.92;;;47.00;39.40;;;;;;5032341;28;20032;-77
2021/07/17 10:38:57;;;;;;;36.45;34.40;;;47.10;39.20;;;;;;5031135;28;20045;-77
2021/07/17 10:41:24;;;;;;;36.22;33.75;;;47.30;39.10;;;;;;5032723;28;20127;-77
2021/07/17 10:43:54;;;;;;;39.70;37.38;;;47.50;39.10;;;;;;5031765;28;20076;-76
2021/07/17 10:46:33;;;;;;;41.72;38.88;;;47.90;39.00;;;;;;5030598;28;20033;-79
2021/07/17 10:49:01;;;;;;;44.72;42.33;;;48.20;38.80;;;;;;5031959;28;20025;-76
2021/07/17 10:51:30;;;;;;;37.53;35.30;;;48.40;38.70;;;;;;5031855;28;20033;-77
2021/07/17 10:54:00;;;;;;;36.47;34.38;;;48.60;38.60;;;;;;5031561;28;20099;-77
2021/07/17 10:56:30;;;;;;;31.15;29.00;;;48.50;38.70;;;;;;5031492;28;20460;-76
2021/07/17 10:59:00;;;;;;;28.35;26.60;;;48.30;38.60;;;;;;5031256;28;20021;-77
2021/07/17 11:01:27;;;;;;;30.10;28.38;;;48.20;38.80;;;;;;5031537;28;20113;-79
2021/07/17 11:03:54;;;;;;;31.70;29.58;;;48.20;38.60;;;;;;5030154;28;20038;-79
2021/07/17 11:06:33;;;;;;;30.42;28.45;;;48.40;38.50;;;;;;5031766;28;20517;-78
2021/07/17 11:09:23;;;;;;;31.92;30.08;;;48.30;38.30;;;;;;5028753;28;20096;-78
2021/07/17 11:11:49;;;;;;;25.80;24.30;;;48.70;38.40;;;;;;5023565;28;20041;-80
2021/07/17 11:14:14;;;;;;;27.38;25.70;;;48.70;38.20;;;;;;5011079;28;20500;-79
2021/07/17 11:16:45;;;;;;;32.72;30.85;;;48.00;38.10;;;;;;5031429;28;20039;-79
2021/07/17 11:19:14;;;;;;;28.75;26.92;;;47.70;38.40;;;;;;5029145;28;20036;-77
2021/07/17 11:21:40;;;;;;;30.15;27.88;;;47.70;39.00;;;;;;5030486;28;20506;-78
2021/07/17 11:24:07;;;;;;;44.97;42.42;;;47.60;38.30;;;;;;5031840;28;20464;-78
2021/07/17 11:26:33;;;;;;;33.92;32.00;;;47.40;38.40;;;;;;5032305;28;20034;-80
2021/07/17 11:29:04;;;;;;;30.35;28.73;;;47.40;38.60;;;;;;5030138;28;20052;-77
2021/07/17 11:31:31;;;;;;;42.75;40.45;;;47.40;38.70;;;;;;5030603;28;20079;-76
2021/07/17 11:34:17;;;;;;;34.35;32.50;;;47.50;38.30;;;;;;5030353;28;20380;-76
2021/07/17 11:36:53;;;;;;;27.83;26.23;;;47.20;38.20;;;;;;5022250;28;20415;-76
2021/07/17 11:39:22;;;;;;;35.03;33.03;;;46.80;38.20;;;;;;5030628;28;20039;-76
2021/07/17 11:41:47;;;;;;;;;;;46.70;38.40;;;;;;5030900;28;20076;-77
2021/07/17 11:44:14;;;;;;;29.10;27.42;;;46.60;38.60;;;;;;5029511;28;19916;-78
2021/07/17 11:46:56;;;;;;;33.15;31.17;;;46.60;38.70;;;;;;5030719;28;20437;-77
2021/07/17 11:49:33;;;;;;;60.42;57.10;;;46.50;38.50;;;;;;5026847;28;20041;-76
2021/07/17 11:52:01;;;;;;;68.97;65.28;;;46.30;38.40;;;;;;5023118;28;20056;-76
2021/07/17 11:54:27;;;;;;;;;;;46.00;38.40;;;;;;5030941;28;20550;-77
2021/07/17 11:57:06;;;;;;;53.88;50.83;;;45.80;39.00;;;;;;5031054;28;19904;-81
2021/07/17 11:59:33;;;;;;;48.00;44.60;;;45.90;38.80;;;;;;5030828;28;20392;-79
2021/07/17 12:02:10;;;;;;;71.05;67.20;;;46.30;38.80;;;;;;5030999;28;20105;-78
2021/07/17 12:04:44;;;;;;;44.05;41.67;;;46.50;38.50;;;;;;5027638;28;20415;-77
2021/07/17 12:07:12;;;;;;;54.95;52.15;;;46.40;38.40;;;;;;5030241;28;20025;-78
2021/07/17 12:09:41;;;;;;;62.70;59.47;;;46.40;38.40;;;;;;5029824;28;20025;-80
2021/07/17 12:12:23;;;;;;;71.45;67.40;;;46.30;38.20;;;;;;5030077;28;20424;-81
2021/07/17 12:15:01;;;;;;;55.10;52.22;;;46.00;38.50;;;;;;5024743;28;20025;-78